Time;durP1;ratioP1;P1;durP2;ratioP2;P2;SDS_P1;SDS_P2;PMS_P1;PMS_P2;Temp;Humidity;BMP_temperature;BMP_pressure;BME280_temperature;BME280_humidity;BME280_pressure;Samples;Min_cycle;Max_cycle;Signal;HPM_P1;HPM_P2
2021/07/17 07:30:40;;;;;;;34.95;27.00;;;18.60;99.90;;;;;;6074147;23;20176;-91
2021/07/17 07:33:07;;;;;;;35.03;27.38;;;18.70;99.90;;;;;;6102914;23;20612;-91
2021/07/17 07:35:34;;;;;;;32.13;26.10;;;18.70;99.90;;;;;;6160466;23;20207;-90
2021/07/17 07:48:22;;;;;;;34.65;27.17;;;18.90;99.70;;;;;;6160687;23;20195;-90
2021/07/17 07:50:49;;;;;;;34.33;27.17;;;18.80;99.30;;;;;;6160123;23;20199;-92
2021/07/17 07:53:16;;;;;;;33.97;26.88;;;18.90;99.40;;;;;;6165342;23;20258;-92
2021/07/17 07:55:47;;;;;;;37.30;26.55;;;19.00;99.30;;;;;;6158734;23;20508;-92
2021/07/17 07:58:35;;;;;;;34.05;26.50;;;19.00;99.20;;;;;;6159038;23;20183;-94
2021/07/17 08:01:21;;;;;;;35.22;26.52;;;19.00;99.10;;;;;;6115378;23;20556;-92
2021/07/17 08:07:49;;;;;;;37.75;26.58;;;19.10;99.00;;;;;;6167418;23;20170;-92
2021/07/17 08:10:16;;;;;;;33.67;26.70;;;19.10;98.90;;;;;;6160328;23;20241;-92
2021/07/17 08:12:46;;;;;;;34.83;24.98;;;19.10;99.00;;;;;;6135370;23;20629;-93
2021/07/17 08:15:14;;;;;;;30.02;23.83;;;19.30;98.80;;;;;;6113931;23;20203;-92
2021/07/17 08:17:41;;;;;;;30.67;24.77;;;19.40;98.50;;;;;;6109058;23;20194;-90
2021/07/17 08:20:10;;;;;;;30.33;24.25;;;19.50;98.00;;;;;;6160054;23;20227;-90
2021/07/17 08:22:42;;;;;;;29.77;24.50;;;19.60;97.70;;;;;;6162925;23;20179;-92
2021/07/17 08:28:43;;;;;;;47.00;38.55;;;19.50;97.50;;;;;;6163172;23;20699;-91
2021/07/17 08:34:33;;;;;;;30.52;25.27;;;19.40;97.90;;;;;;6172072;23;20173;-89
2021/07/17 08:37:55;;;;;;;28.02;23.38;;;19.40;97.90;;;;;;6159335;23;20242;-90
2021/07/17 08:46:38;;;;;;;30.30;23.65;;;19.50;98.00;;;;;;6153514;23;20179;-91
2021/07/17 08:49:05;;;;;;;30.58;23.85;;;19.50;98.00;;;;;;6162839;23;20203;-89
2021/07/17 08:51:53;;;;;;;30.67;22.65;;;19.60;98.00;;;;;;6158669;23;20187;-91
2021/07/17 08:54:22;;;;;;;32.35;23.80;;;19.60;97.20;;;;;;6163353;23;20270;-89
2021/07/17 08:56:49;;;;;;;27.50;22.55;;;19.60;98.30;;;;;;6132422;23;20242;-91
2021/07/17 08:59:21;;;;;;;29.25;22.88;;;19.70;97.30;;;;;;6163619;23;20483;-88
2021/07/17 09:08:51;;;;;;;23.75;21.25;;;19.80;96.60;;;;;;6141205;23;20231;-87
2021/07/17 09:11:18;;;;;;;26.63;21.40;;;19.90;96.20;;;;;;6156197;23;20526;-88
2021/07/17 09:13:46;;;;;;;26.40;22.30;;;20.00;96.40;;;;;;6157620;23;20282;-92
2021/07/17 09:16:18;;;;;;;27.52;22.48;;;20.10;96.20;;;;;;6158928;23;20191;-89
2021/07/17 09:19:06;;;;;;;25.55;21.70;;;20.10;95.60;;;;;;6167138;23;20230;-91
2021/07/17 09:32:02;;;;;;;25.80;22.52;;;20.60;94.30;;;;;;6164674;23;20232;-92
2021/07/17 09:34:49;;;;;;;22.08;19.77;;;20.70;93.40;;;;;;6147226;23;20179;-92
2021/07/17 10:19:04;;;;;;;16.27;14.65;;;21.40;91.00;;;;;;6162330;23;20203;-90
2021/07/17 10:21:50;;;;;;;24.42;19.75;;;21.40;91.90;;;;;;6159684;23;20183;-91
2021/07/17 10:27:24;;;;;;;26.02;21.67;;;21.30;91.80;;;;;;6159008;23;20158;-89
2021/07/17 10:29:51;;;;;;;18.08;16.17;;;21.10;92.70;;;;;;6159901;23;20264;-90
2021/07/17 10:32:18;;;;;;;20.20;17.60;;;21.00;92.90;;;;;;6161767;23;20174;-88
2021/07/17 10:34:47;;;;;;;19.27;16.52;;;20.90;93.70;;;;;;6160986;23;20203;-89
2021/07/17 10:37:18;;;;;;;20.95;16.92;;;20.80;94.00;;;;;;6167319;23;20202;-87
2021/07/17 10:39:50;;;;;;;22.02;17.60;;;20.70;94.50;;;;;;6165309;23;20210;-90
2021/07/17 10:42:21;;;;;;;21.10;16.58;;;20.60;95.10;;;;;;6163154;23;20182;-89
2021/07/17 10:44:50;;;;;;;23.02;17.40;;;20.60;96.00;;;;;;6163755;23;20242;-90
2021/07/17 10:47:18;;;;;;;21.10;17.92;;;20.50;95.50;;;;;;6165574;23;20190;-90
2021/07/17 10:49:48;;;;;;;21.80;16.90;;;20.40;95.80;;;;;;6162721;23;20587;-88
2021/07/17 10:52:16;;;;;;;18.40;15.13;;;20.30;95.80;;;;;;6163945;23;20214;-89
2021/07/17 10:54:43;;;;;;;21.63;16.38;;;20.30;95.80;;;;;;6164550;23;20214;-86
2021/07/17 10:57:10;;;;;;;17.67;15.63;;;20.20;96.10;;;;;;6165914;23;20183;-89
2021/07/17 10:59:47;;;;;;;20.38;16.23;;;20.30;96.00;;;;;;6165471;23;20203;-91
2021/07/17 11:02:25;;;;;;;21.23;15.50;;;20.60;95.40;;;;;;6166898;23;20374;-90
2021/07/17 11:07:48;;;;;;;29.67;25.88;;;20.90;94.70;;;;;;6157119;23;20186;-91
2021/07/17 11:10:49;;;;;;;21.00;15.40;;;21.00;94.70;;;;;;6159694;23;20218;-91
2021/07/17 11:13:38;;;;;;;19.55;16.30;;;20.90;94.70;;;;;;6165124;23;20213;-89
2021/07/17 11:16:42;;;;;;;20.08;16.55;;;20.80;95.60;;;;;;6142592;23;20270;-89
2021/07/17 11:25:16;;;;;;;22.63;17.27;;;20.30;97.10;;;;;;6165920;23;20206;-90
2021/07/17 11:27:44;;;;;;;27.55;17.45;;;20.20;97.50;;;;;;6138845;23;20175;-89
2021/07/17 11:40:23;;;;;;;24.10;18.00;;;20.10;97.70;;;;;;6156089;23;20187;-86
2021/07/17 11:42:50;;;;;;;21.38;18.08;;;20.30;97.50;;;;;;6166872;23;20207;-86
2021/07/17 11:45:18;;;;;;;18.75;16.55;;;20.60;96.60;;;;;;6170531;23;20595;-85
2021/07/17 11:50:22;;;;;;;17.77;15.85;;;21.80;94.50;;;;;;6162758;23;20660;-86
2021/07/17 11:52:49;;;;;;;21.75;16.92;;;22.40;92.30;;;;;;6159192;23;20182;-85
2021/07/17 11:55:19;;;;;;;20.35;16.85;;;22.80;90.00;;;;;;6158150;23;20217;-91
2021/07/17 11:57:48;;;;;;;24.13;16.73;;;23.00;87.20;;;;;;6156579;23;20179;-90
2021/07/17 12:00:17;;;;;;;21.52;16.27;;;22.80;90.00;;;;;;6159781;23;20726;-88
2021/07/17 12:02:46;;;;;;;18.05;15.75;;;22.40;90.60;;;;;;6162273;23;20558;-88
2021/07/17 12:05:15;;;;;;;21.35;17.25;;;22.10;91.50;;;;;;6161026;23;20207;-88
2021/07/17 12:07:43;;;;;;;22.33;17.35;;;21.90;92.30;;;;;;6161823;23;20190;-91
2021/07/17 12:10:13;;;;;;;21.45;16.83;;;21.50;92.60;;;;;;6162064;23;20195;-90
2021/07/17 12:12:42;;;;;;;20.52;17.38;;;21.20;92.90;;;;;;6155082;23;20238;-91
2021/07/17 12:15:16;;;;;;;21.13;16.50;;;21.00;93.90;;;;;;6151492;23;20275;-90
2021/07/17 12:28:22;;;;;;;24.73;17.95;;;21.10;93.70;;;;;;6163950;23;20199;-87
2021/07/17 12:38:36;;;;;;;23.75;16.65;;;20.70;95.20;;;;;;6164905;23;20152;-88
2021/07/17 12:59:02;;;;;;;15.57;13.27;;;21.20;92.90;;;;;;6174326;23;20174;-87
2021/07/17 13:05:37;;;;;;;18.85;12.63;;;21.70;91.70;;;;;;6174755;23;20171;-88
2021/07/17 13:08:04;;;;;;;16.20;12.75;;;21.80;91.20;;;;;;6165214;23;20191;-88
2021/07/17 13:10:35;;;;;;;18.80;13.13;;;22.00;90.50;;;;;;6144819;23;20179;-87
2021/07/17 13:17:12;;;;;;;16.30;12.30;;;22.30;87.90;;;;;;6166866;23;20151;-87
2021/07/17 13:20:12;;;;;;;17.92;13.30;;;22.50;87.20;;;;;;6159256;23;20206;-89
2021/07/17 13:22:40;;;;;;;15.13;11.80;;;22.60;86.30;;;;;;6163137;23;20195;-89
2021/07/17 13:25:13;;;;;;;15.52;12.38;;;23.00;85.90;;;;;;6144002;23;20259;-89
2021/07/17 13:27:41;;;;;;;14.90;11.75;;;23.20;81.00;;;;;;6167060;23;20215;-88
2021/07/17 13:30:17;;;;;;;12.93;11.60;;;23.10;83.00;;;;;;6171722;23;20207;-87
2021/07/17 13:32:46;;;;;;;13.30;11.63;;;23.20;83.10;;;;;;6167580;23;20254;-88
2021/07/17 13:35:19;;;;;;;12.75;10.82;;;23.20;81.80;;;;;;6166576;23;20199;-87
2021/07/17 13:38:01;;;;;;;11.93;10.32;;;23.00;80.90;;;;;;6166572;23;20199;-87
2021/07/17 13:40:30;;;;;;;13.77;10.57;;;23.10;82.30;;;;;;6115817;23;20202;-87
2021/07/17 13:43:02;;;;;;;12.68;10.32;;;23.30;80.20;;;;;;6166541;23;20167;-87
2021/07/17 13:45:32;;;;;;;13.25;10.38;;;23.40;79.70;;;;;;6166403;23;20219;-86
2021/07/17 14:02:42;;;;;;;15.55;10.75;;;22.80;82.40;;;;;;6144198;23;20156;-86
2021/07/17 14:05:52;;;;;;;13.85;10.70;;;22.50;82.90;;;;;;6141735;23;20757;-86
2021/07/17 14:08:20;;;;;;;14.25;10.43;;;22.40;84.40;;;;;;6141685;23;20183;-85
2021/07/17 14:17:59;;;;;;;12.52;10.98;;;22.20;89.10;;;;;;6141936;23;20182;-86
2021/07/17 14:20:27;;;;;;;11.35;10.15;;;22.00;89.40;;;;;;6139199;23;20229;-85
2021/07/17 14:22:54;;;;;;;13.07;10.20;;;22.20;88.20;;;;;;6109151;23;20164;-86
2021/07/17 14:32:32;;;;;;;12.18;10.02;;;22.90;82.90;;;;;;6134141;23;20159;-87
2021/07/17 14:35:01;;;;;;;10.27;9.23;;;23.00;83.00;;;;;;6134971;23;20227;-86
2021/07/17 14:37:28;;;;;;;12.00;10.20;;;23.10;83.10;;;;;;6134769;23;20175;-86
2021/07/17 14:40:06;;;;;;;12.25;11.02;;;23.10;83.90;;;;;;6140691;23;20240;-86
2021/07/17 14:42:58;;;;;;;11.18;10.07;;;22.90;82.90;;;;;;6108312;23;20172;-86
2021/07/17 14:46:13;;;;;;;13.02;10.35;;;22.50;83.30;;;;;;6132002;23;20182;-86
2021/07/17 15:45:46;;;;;;;14.73;12.55;;;21.00;92.90;;;;;;6168055;23;20229;-88
2021/07/17 15:48:13;;;;;;;14.57;11.30;;;21.20;92.90;;;;;;6134568;23;20191;-90
2021/07/17 15:50:40;;;;;;;17.10;12.63;;;21.40;92.80;;;;;;6158759;23;20262;-90
2021/07/17 15:56:34;;;;;;;24.08;17.77;;;21.50;92.30;;;;;;6161248;23;20210;-91
2021/07/17 15:59:01;;;;;;;16.50;11.80;;;21.60;92.80;;;;;;6130942;23;20671;-89
2021/07/17 16:01:30;;;;;;;13.75;12.30;;;21.50;92.30;;;;;;6134438;23;20214;-89
2021/07/17 16:03:57;;;;;;;13.75;11.57;;;21.30;93.00;;;;;;6158642;23;20230;-89
2021/07/17 16:06:24;;;;;;;13.95;12.13;;;21.20;92.90;;;;;;6159358;23;20234;-89
2021/07/17 16:08:52;;;;;;;14.20;12.70;;;21.00;93.30;;;;;;6159292;23;20202;-87
2021/07/17 16:11:20;;;;;;;14.75;11.57;;;20.90;94.20;;;;;;6162876;23;20191;-88
2021/07/17 16:13:48;;;;;;;15.00;11.85;;;20.80;94.20;;;;;;6163747;23;20219;-88
2021/07/17 16:23:12;;;;;;;18.25;14.18;;;20.20;96.90;;;;;;6165322;23;20226;-88
2021/07/17 16:25:39;;;;;;;16.95;14.35;;;20.10;97.90;;;;;;6160991;23;20253;-91
2021/07/17 16:28:06;;;;;;;19.30;14.30;;;20.00;98.10;;;;;;6133557;23;20559;-90
2021/07/17 16:31:07;;;;;;;15.38;13.45;;;20.00;98.10;;;;;;6164118;23;20643;-90
2021/07/17 16:33:34;;;;;;;17.60;13.75;;;19.90;98.60;;;;;;6162493;23;20614;-90
2021/07/17 16:36:14;;;;;;;15.57;13.98;;;20.00;98.70;;;;;;6157241;23;20171;-91
2021/07/17 16:38:43;;;;;;;15.07;13.63;;;20.10;98.50;;;;;;6162803;23;20232;-91
2021/07/17 16:41:10;;;;;;;17.65;13.45;;;20.20;98.50;;;;;;6158544;23;20496;-88
2021/07/17 17:39:40;;;;;;;20.80;15.32;;;20.50;98.20;;;;;;6161407;23;20239;-90
2021/07/17 17:42:08;;;;;;;16.67;14.80;;;20.50;98.20;;;;;;6130754;23;20550;-91
2021/07/17 17:44:36;;;;;;;18.65;14.15;;;20.50;98.20;;;;;;6158971;23;20250;-91
2021/07/17 17:47:03;;;;;;;18.55;13.98;;;20.50;98.20;;;;;;6160848;23;20222;-91
2021/07/17 17:49:35;;;;;;;17.00;14.38;;;20.60;98.20;;;;;;6134278;23;20203;-90
2021/07/17 17:52:04;;;;;;;16.42;13.35;;;20.50;98.20;;;;;;6163004;23;20589;-91
2021/07/17 17:54:31;;;;;;;15.82;13.98;;;20.60;98.20;;;;;;6076474;23;20205;-91
2021/07/17 17:57:00;;;;;;;14.77;13.10;;;20.60;98.20;;;;;;6133804;23;20486;-91
2021/07/17 17:59:27;;;;;;;15.63;13.30;;;20.50;98.20;;;;;;6170908;23;20240;-91
2021/07/17 18:05:31;;;;;;;15.75;13.63;;;20.50;98.20;;;;;;6162216;23;20206;-92
2021/07/17 18:08:01;;;;;;;15.30;13.70;;;20.50;98.20;;;;;;6162208;23;20191;-92
2021/07/17 18:20:41;;;;;;;17.50;13.60;;;20.50;98.20;;;;;;6101792;23;20535;-92
2021/07/17 18:23:08;;;;;;;17.45;13.85;;;20.40;98.20;;;;;;6103381;23;20181;-88
2021/07/17 18:25:35;;;;;;;17.15;13.75;;;20.30;98.40;;;;;;6103838;23;20223;-89
2021/07/17 18:28:03;;;;;;;15.32;13.73;;;20.30;98.50;;;;;;6110799;23;20236;-91
2021/07/17 18:30:30;;;;;;;18.88;13.95;;;20.30;98.70;;;;;;6137178;23;20623;-88
2021/07/17 18:32:57;;;;;;;15.68;13.55;;;20.20;98.90;;;;;;6138235;23;20563;-87
2021/07/17 18:35:24;;;;;;;19.38;13.48;;;20.20;99.00;;;;;;6170056;23;20206;-90
2021/07/17 20:03:49;;;;;;;17.60;15.02;;;19.70;99.90;;;;;;6128988;23;20246;-88
2021/07/17 20:16:31;;;;;;;16.98;14.52;;;19.80;99.90;;;;;;6128292;23;20580;-91
2021/07/17 20:22:32;;;;;;;17.35;14.32;;;19.90;99.90;;;;;;6069747;23;20200;-90
2021/07/17 20:42:28;;;;;;;17.30;13.98;;;19.70;99.90;;;;;;6129932;23;20224;-88
2021/07/17 21:24:35;;;;;;;16.70;15.00;;;19.30;99.90;;;;;;6164892;23;20277;-90
2021/07/17 21:27:08;;;;;;;17.25;15.55;;;19.30;99.90;;;;;;6157856;23;20188;-89
